Time;durP1;ratioP1;P1;durP2;ratioP2;P2;SDS_P1;SDS_P2;PMS_P1;PMS_P2;Temp;Humidity;BMP_temperature;BMP_pressure;BME280_temperature;BME280_humidity;BME280_pressure;Samples;Min_cycle;Max_cycle;Signal;HPM_P1;HPM_P2
2023/03/02 00:02:00;;;;;;;8.57;6.57;;;7.50;97.30;;;;;;4925696;29;20209;-81
2023/03/02 00:04:33;;;;;;;15.07;9.50;;;7.40;97.30;;;;;;4935695;29;20221;-82
2023/03/02 00:07:04;;;;;;;16.43;11.80;;;7.40;97.30;;;;;;4921834;29;20634;-81
2023/03/02 00:09:33;;;;;;;20.63;14.70;;;7.40;97.30;;;;;;4930135;29;20207;-81
2023/03/02 00:12:01;;;;;;;22.77;15.63;;;7.40;97.30;;;;;;4915610;29;20208;-82
2023/03/02 00:14:28;;;;;;;23.43;16.37;;;7.30;97.30;;;;;;4928843;29;20246;-82
2023/03/02 00:16:56;;;;;;;24.03;17.47;;;7.30;97.30;;;;;;4914118;29;20240;-82
2023/03/02 00:19:24;;;;;;;23.43;17.37;;;7.30;97.30;;;;;;4935058;29;20705;-82
2023/03/02 00:21:51;;;;;;;27.30;19.37;;;7.30;97.30;;;;;;4929252;29;20648;-82
2023/03/02 00:24:18;;;;;;;29.10;19.53;;;7.20;97.30;;;;;;4914203;29;20223;-82
2023/03/02 00:26:47;;;;;;;32.77;19.97;;;7.20;97.30;;;;;;4927166;29;20237;-82
2023/03/02 00:29:15;;;;;;;26.80;19.03;;;7.20;97.30;;;;;;4917645;29;20211;-81
2023/03/02 00:31:42;;;;;;;29.47;20.97;;;7.20;97.30;;;;;;4914170;29;20218;-81
2023/03/02 00:34:10;;;;;;;32.80;21.93;;;7.10;97.30;;;;;;4911857;29;20219;-82
2023/03/02 00:36:37;;;;;;;30.73;21.77;;;7.10;97.30;;;;;;4927103;29;20207;-81
2023/03/02 00:39:05;;;;;;;28.23;20.40;;;7.10;97.40;;;;;;4917220;29;20203;-82
2023/03/02 00:41:34;;;;;;;31.67;21.53;;;7.00;97.30;;;;;;4924920;29;20205;-81
2023/03/02 00:44:02;;;;;;;30.13;22.07;;;7.00;97.40;;;;;;4931139;29;20697;-81
2023/03/02 00:46:29;;;;;;;32.67;21.70;;;7.00;97.30;;;;;;4931073;29;20620;-82
2023/03/02 00:48:58;;;;;;;32.43;22.37;;;7.00;97.40;;;;;;4933483;29;20243;-82
2023/03/02 00:51:25;;;;;;;35.70;22.63;;;6.90;97.40;;;;;;4931433;29;20209;-81
2023/03/02 00:53:52;;;;;;;34.97;23.87;;;6.90;97.40;;;;;;4912271;29;20267;-82
2023/03/02 00:56:20;;;;;;;33.93;23.03;;;6.80;97.40;;;;;;4929631;29;20211;-81
2023/03/02 00:58:50;;;;;;;37.23;24.83;;;6.80;97.50;;;;;;4918054;29;20204;-82
2023/03/02 01:01:18;;;;;;;33.10;23.53;;;6.80;97.60;;;;;;4931591;29;20218;-82
2023/03/02 01:03:49;;;;;;;34.73;23.77;;;6.80;97.60;;;;;;4919395;29;20207;-83
2023/03/02 01:06:19;;;;;;;38.70;26.07;;;6.80;97.60;;;;;;4930295;29;20223;-81
2023/03/02 01:08:47;;;;;;;35.83;24.37;;;6.70;97.60;;;;;;4918894;29;20222;-82
2023/03/02 01:11:17;;;;;;;33.03;23.30;;;6.80;97.60;;;;;;4929729;29;20220;-82
2023/03/02 01:13:45;;;;;;;36.87;24.13;;;6.70;97.60;;;;;;4925827;29;20208;-82
2023/03/02 01:16:15;;;;;;;37.23;23.63;;;6.70;97.70;;;;;;4920866;29;20322;-82
2023/03/02 01:18:42;;;;;;;37.97;25.13;;;6.70;97.70;;;;;;4933398;29;20212;-83
2023/03/02 01:21:14;;;;;;;35.30;24.43;;;6.70;97.70;;;;;;4917630;29;20204;-82
2023/03/02 01:23:42;;;;;;;36.77;25.17;;;6.70;97.70;;;;;;4918800;29;20328;-82
2023/03/02 01:26:10;;;;;;;35.90;25.80;;;6.70;97.70;;;;;;4930792;29;20224;-82
2023/03/02 01:28:37;;;;;;;36.27;24.57;;;6.70;97.70;;;;;;4917066;29;20199;-82
2023/03/02 01:31:04;;;;;;;35.77;25.07;;;6.70;97.70;;;;;;4911401;29;20205;-82
2023/03/02 01:33:31;;;;;;;40.13;25.50;;;6.70;97.70;;;;;;4921640;29;20208;-82
2023/03/02 01:35:59;;;;;;;36.53;24.67;;;6.60;97.70;;;;;;4934453;29;20223;-82
2023/03/02 01:38:27;;;;;;;37.80;25.97;;;6.60;97.70;;;;;;4932911;29;20211;-82
2023/03/02 01:40:54;;;;;;;37.37;25.07;;;6.60;97.80;;;;;;4922210;29;20286;-82
2023/03/02 01:43:22;;;;;;;35.57;24.50;;;6.60;97.80;;;;;;4929535;29;20207;-82
2023/03/02 01:45:54;;;;;;;40.37;25.80;;;6.60;97.80;;;;;;4920942;29;20200;-83
2023/03/02 01:48:58;;;;;;;35.30;24.43;;;6.60;97.80;;;;;;4935547;29;20309;-82
2023/03/02 01:51:46;;;;;;;40.33;24.23;;;6.60;97.80;;;;;;4902323;29;20215;-82
2023/03/02 01:54:21;;;;;;;41.50;25.47;;;6.50;97.80;;;;;;4928311;29;20281;-81
2023/03/02 01:56:58;;;;;;;35.07;22.87;;;6.50;97.80;;;;;;4926128;29;20223;-81
2023/03/02 01:59:28;;;;;;;35.27;25.77;;;6.50;97.80;;;;;;4910812;29;20226;-80
2023/03/02 02:02:00;;;;;;;39.03;24.97;;;6.50;97.80;;;;;;4925188;29;20229;-81
2023/03/02 02:04:30;;;;;;;36.10;24.43;;;6.50;97.80;;;;;;4934075;29;20209;-81
2023/03/02 02:07:05;;;;;;;37.30;24.47;;;6.50;97.90;;;;;;4921473;29;20207;-81
2023/03/02 02:09:38;;;;;;;39.17;26.37;;;6.50;97.90;;;;;;4914624;29;20608;-81
2023/03/02 02:12:12;;;;;;;39.20;27.03;;;6.50;97.90;;;;;;4913661;29;20625;-81
2023/03/02 02:14:41;;;;;;;35.97;24.60;;;6.50;97.90;;;;;;4917399;29;20227;-82
2023/03/02 02:17:09;;;;;;;42.20;26.00;;;6.50;97.80;;;;;;4905177;29;20238;-81
2023/03/02 02:19:36;;;;;;;35.37;25.60;;;6.40;97.80;;;;;;4929760;29;20203;-81
2023/03/02 02:22:05;;;;;;;38.60;27.07;;;6.40;97.80;;;;;;4930394;29;20673;-81
2023/03/02 02:24:54;;;;;;;36.87;25.80;;;6.40;97.80;;;;;;4927715;29;20223;-81
2023/03/02 02:27:32;;;;;;;37.20;26.33;;;6.40;97.80;;;;;;4929909;29;20207;-81
2023/03/02 02:30:03;;;;;;;38.63;24.87;;;6.40;97.90;;;;;;4932444;29;20652;-81
2023/03/02 02:32:36;;;;;;;38.80;25.50;;;6.40;97.90;;;;;;4936065;29;20216;-81
2023/03/02 02:35:17;;;;;;;38.83;26.90;;;6.40;97.90;;;;;;4941474;29;20223;-81
2023/03/02 02:38:01;;;;;;;38.57;27.03;;;6.40;97.90;;;;;;4931522;29;20257;-81
2023/03/02 02:40:50;;;;;;;35.33;24.00;;;6.30;97.90;;;;;;4929503;29;20208;-81
2023/03/02 02:43:24;;;;;;;39.67;25.50;;;6.30;97.90;;;;;;4927539;29;20654;-82
2023/03/02 02:45:56;;;;;;;34.43;25.60;;;6.30;97.90;;;;;;4921543;29;20708;-81
2023/03/02 02:48:29;;;;;;;41.50;26.50;;;6.30;98.00;;;;;;4936803;29;20207;-82
2023/03/02 02:51:02;;;;;;;38.07;25.83;;;6.30;98.10;;;;;;4923241;29;20645;-81
2023/03/02 02:53:41;;;;;;;38.53;25.37;;;6.30;98.00;;;;;;4932386;29;20620;-82
2023/03/02 02:56:11;;;;;;;37.40;26.07;;;6.30;98.00;;;;;;4914849;29;20223;-80
2023/03/02 02:58:49;;;;;;;39.67;26.03;;;6.30;98.10;;;;;;4918800;29;20291;-81
2023/03/02 03:01:24;;;;;;;37.13;27.10;;;6.30;98.20;;;;;;4937445;29;20294;-82
2023/03/02 03:04:02;;;;;;;33.13;25.00;;;6.30;98.20;;;;;;4933809;29;20262;-81
2023/03/02 03:06:41;;;;;;;38.70;25.53;;;6.30;98.20;;;;;;4931395;29;20214;-81
2023/03/02 03:09:11;;;;;;;37.73;25.47;;;6.30;98.20;;;;;;4933901;29;20222;-81
2023/03/02 03:12:02;;;;;;;34.10;24.30;;;6.30;98.20;;;;;;4930695;29;20239;-81
2023/03/02 03:14:38;;;;;;;35.13;24.53;;;6.30;98.20;;;;;;4930727;29;20241;-81
2023/03/02 03:17:12;;;;;;;35.60;24.00;;;6.30;98.20;;;;;;4920040;29;20704;-82
2023/03/02 03:19:49;;;;;;;36.67;25.00;;;6.30;98.20;;;;;;4920972;29;20210;-81
2023/03/02 03:22:16;;;;;;;35.53;24.37;;;6.30;98.20;;;;;;4922800;29;20220;-81
2023/03/02 03:24:47;;;;;;;34.70;23.37;;;6.30;98.30;;;;;;4920303;29;20223;-80
2023/03/02 03:27:16;;;;;;;35.43;23.63;;;6.30;98.30;;;;;;4927599;29;20239;-81
2023/03/02 03:29:47;;;;;;;31.27;22.43;;;6.30;98.30;;;;;;4941726;29;20506;-81
2023/03/02 03:32:18;;;;;;;30.77;20.70;;;6.30;98.30;;;;;;4931316;29;20649;-81
2023/03/02 03:34:48;;;;;;;31.07;22.33;;;6.30;98.30;;;;;;4920227;29;20331;-81
2023/03/02 03:37:28;;;;;;;32.40;21.27;;;6.30;98.30;;;;;;4916493;29;20204;-81
2023/03/02 03:39:55;;;;;;;28.17;20.67;;;6.30;98.30;;;;;;4920156;29;20215;-81
2023/03/02 03:42:23;;;;;;;28.90;20.67;;;6.30;98.30;;;;;;4932857;29;20199;-81
2023/03/02 03:44:53;;;;;;;31.90;21.27;;;6.30;98.20;;;;;;4927968;29;20306;-81
2023/03/02 03:47:20;;;;;;;30.37;21.77;;;6.30;98.30;;;;;;4932745;29;20200;-81
2023/03/02 03:49:49;;;;;;;35.47;21.53;;;6.30;98.30;;;;;;4920899;29;20233;-81
2023/03/02 03:52:16;;;;;;;33.70;21.87;;;6.30;98.30;;;;;;4931941;29;20556;-81
2023/03/02 03:54:44;;;;;;;33.20;21.93;;;6.30;98.20;;;;;;4933984;29;20219;-82
2023/03/02 03:57:11;;;;;;;34.40;23.13;;;6.30;98.20;;;;;;4930486;29;20222;-81
2023/03/02 03:59:39;;;;;;;30.93;21.10;;;6.30;98.20;;;;;;4933178;29;20213;-81
2023/03/02 04:02:07;;;;;;;29.60;20.83;;;6.30;98.30;;;;;;4927700;29;20279;-81
2023/03/02 04:04:41;;;;;;;32.10;21.67;;;6.30;98.30;;;;;;4918999;29;20216;-81
2023/03/02 04:07:15;;;;;;;29.80;21.90;;;6.30;98.30;;;;;;4929205;29;20234;-81
2023/03/02 04:09:45;;;;;;;31.87;21.50;;;6.20;98.30;;;;;;4914587;29;20268;-81
2023/03/02 04:12:13;;;;;;;32.33;22.70;;;6.30;98.30;;;;;;4929922;29;20211;-81
2023/03/02 04:14:45;;;;;;;33.77;21.87;;;6.20;98.40;;;;;;4916325;29;20267;-81
2023/03/02 04:17:14;;;;;;;30.60;21.73;;;6.20;98.40;;;;;;4928837;29;20235;-82
2023/03/02 04:19:45;;;;;;;28.20;20.87;;;6.20;98.40;;;;;;4930283;29;20211;-82
2023/03/02 04:22:15;;;;;;;28.73;20.57;;;6.20;98.40;;;;;;4929481;29;20207;-81
2023/03/02 04:24:42;;;;;;;33.23;22.33;;;6.20;98.40;;;;;;4934130;29;20240;-81
2023/03/02 04:27:12;;;;;;;32.13;21.27;;;6.20;98.40;;;;;;4920530;29;20235;-81
2023/03/02 04:29:42;;;;;;;32.27;21.90;;;6.20;98.50;;;;;;4924982;29;20211;-82
2023/03/02 04:32:13;;;;;;;32.23;21.20;;;6.20;98.50;;;;;;4933797;29;20588;-82
2023/03/02 04:34:44;;;;;;;32.13;21.97;;;6.20;98.50;;;;;;4907160;29;20204;-81
2023/03/02 04:37:12;;;;;;;31.70;20.53;;;6.20;98.50;;;;;;4931969;29;20222;-82
2023/03/02 04:39:41;;;;;;;30.47;21.63;;;6.20;98.50;;;;;;4920506;29;20275;-81
2023/03/02 04:42:10;;;;;;;29.00;19.43;;;6.30;98.60;;;;;;4920843;29;20204;-81
2023/03/02 04:44:37;;;;;;;31.77;23.10;;;6.30;98.60;;;;;;4930084;29;20207;-82
2023/03/02 04:47:04;;;;;;;35.63;21.83;;;6.30;98.50;;;;;;4930613;29;20630;-81
2023/03/02 04:49:34;;;;;;;31.20;20.87;;;6.30;98.60;;;;;;4917954;29;20214;-83
2023/03/02 04:52:12;;;;;;;28.63;20.43;;;6.30;98.60;;;;;;4930618;29;20215;-81
2023/03/02 04:54:40;;;;;;;26.27;20.30;;;6.30;98.60;;;;;;4932655;29;20204;-81
2023/03/02 04:57:11;;;;;;;28.03;19.60;;;6.30;98.60;;;;;;4933237;29;20329;-81
2023/03/02 04:59:38;;;;;;;29.63;20.60;;;6.30;98.60;;;;;;4935460;29;20202;-80
2023/03/02 05:02:06;;;;;;;28.93;20.77;;;6.30;98.60;;;;;;4930267;29;20295;-80
2023/03/02 05:04:33;;;;;;;33.03;21.80;;;6.30;98.60;;;;;;4931926;29;20203;-81
2023/03/02 05:07:01;;;;;;;31.30;21.57;;;6.30;98.60;;;;;;4928196;29;20212;-82
2023/03/02 05:09:29;;;;;;;30.13;21.07;;;6.30;98.90;;;;;;4918034;29;20784;-81
2023/03/02 05:11:59;;;;;;;31.43;21.90;;;6.30;98.60;;;;;;4916971;29;20208;-81
2023/03/02 05:14:27;;;;;;;28.83;20.87;;;6.30;98.60;;;;;;4916153;29;20210;-81
2023/03/02 05:16:54;;;;;;;30.90;21.13;;;6.30;98.60;;;;;;4917201;29;20284;-81
2023/03/02 05:19:21;;;;;;;27.97;20.17;;;6.30;98.60;;;;;;4920141;29;20254;-81
2023/03/02 05:21:49;;;;;;;32.83;22.40;;;6.30;98.60;;;;;;4941897;29;20207;-80
2023/03/02 05:24:16;;;;;;;29.03;20.67;;;6.30;98.60;;;;;;4933955;29;20211;-82
2023/03/02 05:26:43;;;;;;;31.20;21.50;;;6.30;98.60;;;;;;4940646;29;20211;-80
2023/03/02 05:29:10;;;;;;;30.90;20.70;;;6.40;98.60;;;;;;4918351;29;20235;-80
2023/03/02 05:31:40;;;;;;;32.47;22.03;;;6.40;98.60;;;;;;4929521;29;20207;-80
2023/03/02 05:34:10;;;;;;;32.77;22.60;;;6.30;98.60;;;;;;4922599;29;20296;-81
2023/03/02 05:36:39;;;;;;;32.23;22.23;;;6.40;98.60;;;;;;4921325;29;20215;-80
2023/03/02 05:39:08;;;;;;;30.80;21.73;;;6.40;98.60;;;;;;4930215;29;20561;-81
2023/03/02 05:41:37;;;;;;;32.00;21.87;;;6.40;98.60;;;;;;4911875;29;20629;-81
2023/03/02 05:44:08;;;;;;;33.50;22.87;;;6.30;98.60;;;;;;4914908;29;20211;-80
2023/03/02 05:46:36;;;;;;;30.83;22.30;;;6.40;98.60;;;;;;4928789;29;20204;-81
2023/03/02 05:49:05;;;;;;;33.03;22.53;;;6.40;98.60;;;;;;4909776;29;20242;-82
2023/03/02 05:51:32;;;;;;;35.13;22.90;;;6.40;98.60;;;;;;4925220;29;20209;-81
2023/03/02 05:54:02;;;;;;;33.40;22.07;;;6.40;98.60;;;;;;4900114;29;20216;-82
2023/03/02 05:56:29;;;;;;;33.77;22.90;;;6.40;98.60;;;;;;4916598;29;20223;-82
2023/03/02 05:58:58;;;;;;;33.73;23.93;;;6.40;98.60;;;;;;4934740;29;20644;-82
2023/03/02 06:01:27;;;;;;;34.40;23.83;;;6.40;98.60;;;;;;4930628;29;20265;-82
2023/03/02 06:03:58;;;;;;;29.13;22.60;;;6.40;98.60;;;;;;4933138;29;20545;-82
2023/03/02 06:06:26;;;;;;;35.97;24.00;;;6.40;98.60;;;;;;4918045;29;20215;-82
2023/03/02 06:08:53;;;;;;;34.23;22.87;;;6.40;98.70;;;;;;4933268;29;20223;-82
2023/03/02 06:11:21;;;;;;;30.00;22.83;;;6.40;98.70;;;;;;4928324;29;20211;-82
2023/03/02 06:13:49;;;;;;;34.73;24.43;;;6.50;98.70;;;;;;4931208;29;20204;-82
2023/03/02 06:16:16;;;;;;;35.13;24.07;;;6.40;98.70;;;;;;4918072;29;20243;-82
2023/03/02 06:18:44;;;;;;;33.40;23.90;;;6.50;98.70;;;;;;4936507;29;20629;-82
2023/03/02 06:21:12;;;;;;;32.57;22.80;;;6.50;98.70;;;;;;4915476;29;20207;-82
2023/03/02 06:23:39;;;;;;;35.10;24.60;;;6.50;98.70;;;;;;4914272;29;20207;-82
2023/03/02 06:26:08;;;;;;;35.70;23.83;;;6.50;98.70;;;;;;4929106;29;20211;-81
2023/03/02 06:28:37;;;;;;;37.23;24.50;;;6.50;98.70;;;;;;4918556;29;20582;-82
2023/03/02 06:31:19;;;;;;;34.27;24.60;;;6.50;98.70;;;;;;4909181;29;20226;-82
2023/03/02 06:33:47;;;;;;;34.10;23.83;;;6.50;98.70;;;;;;4937599;29;20273;-82
2023/03/02 06:36:17;;;;;;;34.03;24.40;;;6.60;98.70;;;;;;4929289;29;20244;-81
2023/03/02 06:38:45;;;;;;;34.27;22.77;;;6.60;98.70;;;;;;4916504;29;20206;-81
2023/03/02 06:41:16;;;;;;;32.40;24.13;;;6.60;98.70;;;;;;4925048;29;20647;-81
2023/03/02 06:43:43;;;;;;;33.70;23.07;;;6.60;98.70;;;;;;4913778;29;20662;-82
2023/03/02 06:46:11;;;;;;;37.80;24.27;;;6.60;98.70;;;;;;4926145;29;20267;-82
2023/03/02 06:49:18;;;;;;;33.73;24.47;;;6.70;98.70;;;;;;4918254;29;20218;-82
2023/03/02 06:51:46;;;;;;;35.73;24.20;;;6.70;98.70;;;;;;4924212;29;20211;-82
2023/03/02 06:54:13;;;;;;;35.97;25.53;;;6.70;98.70;;;;;;4926900;29;20560;-82
2023/03/02 06:56:41;;;;;;;35.13;24.33;;;6.70;98.70;;;;;;4924083;29;20278;-82
2023/03/02 06:59:10;;;;;;;37.20;25.63;;;6.80;98.70;;;;;;4911085;29;20223;-82
2023/03/02 07:01:37;;;;;;;35.90;25.33;;;6.80;98.70;;;;;;4925592;29;20215;-82
2023/03/02 07:04:05;;;;;;;36.60;24.90;;;6.80;98.70;;;;;;4928686;29;20290;-82
2023/03/02 07:06:32;;;;;;;34.63;24.97;;;6.80;98.60;;;;;;4931032;29;20670;-81
2023/03/02 07:09:03;;;;;;;37.37;25.47;;;6.90;98.60;;;;;;4923941;29;20577;-82
2023/03/02 07:11:33;;;;;;;34.97;25.23;;;6.90;98.60;;;;;;4914569;29;20219;-82
2023/03/02 07:14:02;;;;;;;35.83;25.57;;;6.90;98.50;;;;;;4921988;29;21147;-82
2023/03/02 07:16:30;;;;;;;35.90;24.90;;;7.00;98.50;;;;;;4915671;29;20790;-82
2023/03/02 07:18:57;;;;;;;36.50;25.80;;;7.00;98.50;;;;;;4920064;29;20208;-83
2023/03/02 07:21:25;;;;;;;35.47;24.83;;;7.10;98.50;;;;;;4911295;29;20662;-82
2023/03/02 07:23:53;;;;;;;35.03;24.47;;;7.10;98.50;;;;;;4918168;29;20203;-81
2023/03/02 07:26:21;;;;;;;33.33;23.70;;;7.10;98.50;;;;;;4925264;29;20207;-81
2023/03/02 07:28:48;;;;;;;36.50;25.80;;;7.10;98.50;;;;;;4918287;29;20311;-82
2023/03/02 07:31:16;;;;;;;36.63;24.63;;;7.10;98.50;;;;;;4930424;29;20211;-82
2023/03/02 07:33:43;;;;;;;34.00;24.23;;;7.10;98.40;;;;;;4938531;29;20622;-83
2023/03/02 07:36:12;;;;;;;35.00;23.20;;;7.10;98.10;;;;;;4923255;29;20654;-83
2023/03/02 07:38:42;;;;;;;31.13;22.93;;;7.10;97.80;;;;;;4921122;29;20200;-83
2023/03/02 07:41:11;;;;;;;32.40;23.33;;;7.10;97.90;;;;;;4937543;29;20240;-84
2023/03/02 07:43:39;;;;;;;32.40;23.67;;;7.10;97.90;;;;;;4926795;29;20251;-82
2023/03/02 07:46:06;;;;;;;31.33;24.13;;;7.00;97.60;;;;;;4933756;29;20216;-82
2023/03/02 07:48:34;;;;;;;33.77;23.70;;;7.00;97.90;;;;;;4933864;29;20212;-82
2023/03/02 07:51:04;;;;;;;30.90;23.57;;;7.00;98.10;;;;;;4932731;29;20221;-82
2023/03/02 07:53:34;;;;;;;37.13;26.50;;;7.00;98.10;;;;;;4928273;29;20212;-81
2023/03/02 07:56:10;;;;;;;38.60;26.53;;;7.00;98.10;;;;;;4931306;29;20223;-82
2023/03/02 07:58:38;;;;;;;40.77;27.10;;;7.00;98.30;;;;;;4931224;29;20214;-81
2023/03/02 08:01:05;;;;;;;40.67;27.77;;;7.10;98.40;;;;;;4939280;29;20204;-82
2023/03/02 08:03:35;;;;;;;39.03;26.80;;;7.10;98.50;;;;;;4932600;29;20211;-81
2023/03/02 08:06:09;;;;;;;38.53;27.57;;;7.20;98.60;;;;;;4945741;29;20204;-82
2023/03/02 08:08:37;;;;;;;36.90;24.70;;;7.20;98.60;;;;;;4942489;29;20227;-83
2023/03/02 08:11:14;;;;;;;37.87;27.77;;;7.30;98.60;;;;;;4935522;29;20216;-82
2023/03/02 08:13:42;;;;;;;38.33;28.60;;;7.40;98.50;;;;;;4933315;29;20238;-82
2023/03/02 08:16:11;;;;;;;40.97;27.73;;;7.50;98.60;;;;;;4932875;29;20653;-83
2023/03/02 08:18:43;;;;;;;39.30;26.37;;;7.60;98.60;;;;;;4936259;29;20274;-82
2023/03/02 08:21:18;;;;;;;38.47;27.70;;;7.70;98.60;;;;;;4930956;29;20714;-81
2023/03/02 08:23:46;;;;;;;35.53;26.60;;;7.70;98.50;;;;;;4933489;29;20293;-82
2023/03/02 08:26:14;;;;;;;38.10;27.23;;;7.80;98.50;;;;;;4926172;29;20203;-82
2023/03/02 08:28:44;;;;;;;38.23;26.93;;;7.90;98.40;;;;;;4925773;29;20207;-82
2023/03/02 08:31:13;;;;;;;39.77;26.50;;;7.90;98.30;;;;;;4933392;29;20210;-81
2023/03/02 08:33:41;;;;;;;37.37;26.57;;;8.00;98.40;;;;;;4926336;29;20287;-82
2023/03/02 08:36:17;;;;;;;36.77;27.13;;;8.00;98.20;;;;;;4917471;29;20226;-81
2023/03/02 08:38:48;;;;;;;37.20;25.77;;;8.10;98.20;;;;;;4912757;29;20312;-81
2023/03/02 08:41:19;;;;;;;38.37;27.03;;;8.10;98.20;;;;;;4919956;29;20209;-81
2023/03/02 08:43:52;;;;;;;36.67;26.47;;;8.10;98.00;;;;;;4915241;29;20200;-81
2023/03/02 08:46:20;;;;;;;37.33;26.43;;;8.10;97.90;;;;;;4915248;29;20212;-81
2023/03/02 08:48:50;;;;;;;36.13;25.60;;;8.10;97.80;;;;;;4916901;29;20652;-81
2023/03/02 08:51:23;;;;;;;38.30;26.10;;;8.10;97.80;;;;;;4921743;29;20402;-82
2023/03/02 08:53:54;;;;;;;33.73;25.83;;;8.10;97.90;;;;;;4921997;29;20244;-81
2023/03/02 08:56:24;;;;;;;36.50;26.53;;;8.10;97.80;;;;;;4931550;29;20255;-82
2023/03/02 08:58:54;;;;;;;34.57;25.70;;;8.20;97.90;;;;;;4917766;29;20204;-81
2023/03/02 09:01:28;;;;;;;37.53;27.03;;;8.20;97.90;;;;;;4931945;29;20206;-81
2023/03/02 09:03:59;;;;;;;39.83;27.50;;;8.20;97.90;;;;;;4927809;29;20210;-81
2023/03/02 09:06:28;;;;;;;37.73;26.67;;;8.20;97.80;;;;;;4915597;29;20209;-81
2023/03/02 09:08:56;;;;;;;39.53;27.60;;;8.30;97.90;;;;;;4940916;29;20201;-82
2023/03/02 09:11:25;;;;;;;40.37;27.80;;;8.40;97.90;;;;;;4919170;29;20267;-80
2023/03/02 09:13:55;;;;;;;37.67;26.47;;;8.40;97.80;;;;;;4928708;29;20615;-81
2023/03/02 09:16:24;;;;;;;39.00;27.53;;;8.40;97.70;;;;;;4930241;29;20249;-81
2023/03/02 09:18:53;;;;;;;34.17;25.80;;;8.50;97.70;;;;;;4927776;29;20277;-80
2023/03/02 09:21:24;;;;;;;36.60;26.93;;;8.50;97.70;;;;;;4913783;29;20205;-82
2023/03/02 09:23:54;;;;;;;37.13;26.77;;;8.60;97.50;;;;;;4914333;29;20656;-81
2023/03/02 09:26:22;;;;;;;35.27;27.67;;;8.60;97.50;;;;;;4926250;29;20255;-82
2023/03/02 09:28:49;;;;;;;34.40;24.80;;;8.60;97.40;;;;;;4932088;29;20209;-82
2023/03/02 09:31:19;;;;;;;35.03;26.57;;;8.70;97.30;;;;;;4931848;29;20226;-81
2023/03/02 09:33:47;;;;;;;35.73;26.47;;;8.70;96.70;;;;;;4909221;29;20225;-81
2023/03/02 09:36:22;;;;;;;36.77;26.53;;;8.70;96.70;;;;;;4931161;29;20225;-82
2023/03/02 09:38:51;;;;;;;34.30;26.03;;;8.70;96.80;;;;;;4934452;29;20270;-81
2023/03/02 09:41:18;;;;;;;38.77;27.43;;;8.70;96.80;;;;;;4931241;29;21705;-82
2023/03/02 09:44:10;;;;;;;35.73;27.43;;;8.80;96.80;;;;;;4928435;29;20284;-81
2023/03/02 09:46:53;;;;;;;34.07;24.90;;;8.80;96.90;;;;;;4939816;29;20210;-81
2023/03/02 09:49:24;;;;;;;35.67;26.37;;;8.90;96.70;;;;;;4921652;29;20218;-82
2023/03/02 09:52:18;;;;;;;32.77;25.13;;;8.90;96.40;;;;;;4928683;29;20563;-83
2023/03/02 09:54:46;;;;;;;36.33;25.33;;;9.00;96.50;;;;;;4915964;29;20214;-82
2023/03/02 09:57:27;;;;;;;35.70;25.33;;;9.00;96.50;;;;;;4931065;29;20232;-83
2023/03/02 10:00:23;;;;;;;34.50;26.33;;;9.10;96.50;;;;;;4916748;28;20217;-81
2023/03/02 10:03:01;;;;;;;34.70;23.93;;;9.10;96.50;;;;;;4937072;29;20347;-81
2023/03/02 10:05:54;;;;;;;32.13;24.67;;;9.20;96.40;;;;;;4928710;29;20624;-80
2023/03/02 10:08:25;;;;;;;33.53;25.90;;;9.20;96.10;;;;;;4918160;29;20317;-80
2023/03/02 10:11:04;;;;;;;33.83;26.10;;;9.20;96.10;;;;;;4933468;29;20212;-80
2023/03/02 10:13:42;;;;;;;34.00;25.47;;;9.20;96.20;;;;;;4927288;29;20213;-80
2023/03/02 10:16:44;;;;;;;36.23;24.80;;;9.20;96.30;;;;;;4915359;29;20249;-81
2023/03/02 10:19:27;;;;;;;36.10;25.30;;;9.30;96.40;;;;;;4934482;29;20265;-81
2023/03/02 10:22:24;;;;;;;33.47;25.43;;;9.30;96.20;;;;;;4929079;29;20206;-80
2023/03/02 10:25:46;;;;;;;33.50;26.23;;;9.30;96.10;;;;;;4922214;29;20222;-81
2023/03/02 10:28:19;;;;;;;33.00;24.77;;;9.40;96.20;;;;;;4899664;29;20213;-81
2023/03/02 10:31:08;;;;;;;32.77;24.97;;;9.40;96.10;;;;;;4917379;29;20240;-81
2023/03/02 10:33:39;;;;;;;32.17;24.60;;;9.50;96.10;;;;;;4922948;29;20264;-81
2023/03/02 10:36:22;;;;;;;33.73;26.30;;;9.50;95.90;;;;;;4918630;29;20217;-80
2023/03/02 10:38:52;;;;;;;33.40;24.37;;;9.60;96.00;;;;;;4928589;29;20222;-81
2023/03/02 10:41:37;;;;;;;33.40;25.47;;;9.60;96.10;;;;;;4927886;29;20201;-81
2023/03/02 10:44:20;;;;;;;34.83;26.23;;;9.70;96.00;;;;;;4948492;29;20205;-81
2023/03/02 10:46:53;;;;;;;31.80;25.67;;;9.70;95.90;;;;;;4929969;29;20595;-80
2023/03/02 10:49:44;;;;;;;33.40;25.07;;;9.80;96.00;;;;;;4934264;29;20244;-81
2023/03/02 10:52:18;;;;;;;32.60;24.27;;;9.90;96.00;;;;;;4937432;29;20207;-80
2023/03/02 10:54:46;;;;;;;34.13;25.17;;;9.90;95.90;;;;;;4944197;29;20209;-80
2023/03/02 10:57:29;;;;;;;32.83;25.27;;;10.00;95.90;;;;;;4935531;29;20220;-80
2023/03/02 11:00:12;;;;;;;36.13;26.03;;;10.00;95.90;;;;;;4927373;29;20221;-79
2023/03/02 11:02:57;;;;;;;33.00;25.10;;;10.10;95.90;;;;;;4931593;29;20216;-81
2023/03/02 11:05:31;;;;;;;30.43;24.60;;;10.10;95.90;;;;;;4927662;29;20210;-80
2023/03/02 11:08:08;;;;;;;33.53;26.07;;;10.20;95.90;;;;;;4921561;29;20250;-80
2023/03/02 11:10:41;;;;;;;34.87;24.83;;;10.30;95.90;;;;;;4927147;29;20204;-80
2023/03/02 11:13:25;;;;;;;38.80;27.97;;;10.40;95.90;;;;;;4929230;29;20553;-79
2023/03/02 11:16:01;;;;;;;32.73;24.70;;;10.40;95.80;;;;;;4936213;29;20245;-79
2023/03/02 11:18:44;;;;;;;36.97;25.80;;;10.50;95.70;;;;;;4937111;29;20220;-80
2023/03/02 11:21:25;;;;;;;32.37;25.07;;;10.50;95.60;;;;;;4935216;29;20217;-81
2023/03/02 11:24:11;;;;;;;30.50;24.40;;;10.50;95.50;;;;;;4930539;29;20333;-80
2023/03/02 11:27:09;;;;;;;33.40;24.80;;;10.50;95.50;;;;;;4936162;29;20205;-79
2023/03/02 11:29:43;;;;;;;32.60;23.17;;;10.60;95.50;;;;;;4935565;29;20268;-79
2023/03/02 11:32:37;;;;;;;31.83;23.73;;;10.60;95.40;;;;;;4930444;29;20218;-79
2023/03/02 11:35:32;;;;;;;30.70;23.57;;;10.60;95.40;;;;;;4914791;29;20252;-79
2023/03/02 11:38:25;;;;;;;33.90;24.97;;;10.60;95.30;;;;;;4939006;29;20270;-79
2023/03/02 11:41:12;;;;;;;34.03;24.00;;;10.60;95.30;;;;;;4893511;29;20271;-79
2023/03/02 11:43:40;;;;;;;33.83;24.60;;;10.60;95.20;;;;;;4934204;29;20213;-79
2023/03/02 11:46:17;;;;;;;30.93;25.87;;;10.60;95.20;;;;;;4933548;29;20210;-79
2023/03/02 11:48:53;;;;;;;35.77;25.03;;;10.60;95.20;;;;;;4928403;29;20217;-79
2023/03/02 11:51:32;;;;;;;33.73;25.50;;;10.60;95.20;;;;;;4936259;29;20197;-79
2023/03/02 11:54:22;;;;;;;31.83;24.37;;;10.60;95.10;;;;;;4929106;29;20266;-79
2023/03/02 11:56:53;;;;;;;35.37;26.00;;;10.60;95.10;;;;;;4932942;29;20329;-79
2023/03/02 11:59:23;;;;;;;33.63;23.90;;;10.60;95.00;;;;;;4933572;29;20206;-80
2023/03/02 12:01:58;;;;;;;32.40;25.27;;;10.60;95.00;;;;;;4932155;29;20266;-79
2023/03/02 12:04:35;;;;;;;29.50;23.60;;;10.60;95.00;;;;;;4930744;29;20212;-79
2023/03/02 12:07:27;;;;;;;30.57;23.83;;;10.60;95.00;;;;;;4929845;29;20222;-79
2023/03/02 12:10:02;;;;;;;32.27;24.30;;;10.60;95.10;;;;;;4927100;29;20304;-79
2023/03/02 12:12:34;;;;;;;31.40;24.27;;;10.60;95.10;;;;;;4926463;29;20196;-80
2023/03/02 12:15:03;;;;;;;32.13;24.17;;;10.60;95.10;;;;;;4934758;29;20221;-80
2023/03/02 12:17:33;;;;;;;31.47;24.30;;;10.60;95.10;;;;;;4920518;29;20245;-80
2023/03/02 12:20:30;;;;;;;30.87;23.53;;;10.60;95.10;;;;;;4931792;29;20206;-79
2023/03/02 12:23:20;;;;;;;33.60;23.10;;;10.60;95.10;;;;;;4927115;29;20223;-80
2023/03/02 12:25:50;;;;;;;30.67;23.97;;;10.70;95.20;;;;;;4929924;29;20649;-79
2023/03/02 12:28:28;;;;;;;30.60;23.83;;;10.80;95.20;;;;;;4936763;29;20206;-79
2023/03/02 12:31:12;;;;;;;31.27;23.93;;;10.80;95.10;;;;;;4918364;29;20201;-79
2023/03/02 12:33:47;;;;;;;30.37;22.93;;;10.90;95.10;;;;;;4938993;29;20205;-79
2023/03/02 12:36:20;;;;;;;27.17;22.57;;;10.90;95.00;;;;;;4926404;29;20585;-79
2023/03/02 12:39:17;;;;;;;29.47;23.23;;;11.00;94.90;;;;;;4930145;29;20230;-79
2023/03/02 12:42:02;;;;;;;27.33;21.63;;;11.00;94.80;;;;;;4929295;29;20243;-79
2023/03/02 12:45:20;;;;;;;29.77;22.10;;;11.00;94.70;;;;;;4937006;29;20206;-79
2023/03/02 12:47:55;;;;;;;30.90;23.40;;;11.10;94.70;;;;;;4888198;29;20236;-81
2023/03/02 12:50:26;;;;;;;34.07;24.70;;;11.10;94.60;;;;;;4928398;29;20224;-79
2023/03/02 12:53:02;;;;;;;30.77;22.40;;;11.10;94.70;;;;;;4935794;29;20220;-80
2023/03/02 12:55:33;;;;;;;37.10;25.00;;;11.20;94.70;;;;;;4920514;29;20303;-80
2023/03/02 12:58:01;;;;;;;32.37;25.13;;;11.30;94.70;;;;;;4937778;29;20704;-80
2023/03/02 13:00:31;;;;;;;26.13;21.53;;;11.30;94.60;;;;;;4922110;29;20202;-80
2023/03/02 13:03:00;;;;;;;29.10;21.93;;;11.40;94.40;;;;;;4919718;29;20213;-80
2023/03/02 13:05:33;;;;;;;27.77;21.67;;;11.50;94.30;;;;;;4930764;29;20229;-80